createdAt,value
2022-12-23T00:02:31.252Z,31.80
2022-12-23T00:05:03.856Z,32.20
2022-12-23T00:07:36.489Z,34.50
2022-12-23T00:10:11.050Z,30.80
2022-12-23T00:13:01.025Z,32.90
2022-12-23T00:15:33.623Z,30.20
2022-12-23T00:18:06.273Z,32.20
2022-12-23T00:20:41.699Z,30.50
2022-12-23T00:23:14.214Z,29.80
2022-12-23T00:25:46.954Z,32.30
2022-12-23T00:28:21.259Z,30.20
2022-12-23T00:30:55.407Z,30.80
2022-12-23T00:33:29.220Z,30.40
2022-12-23T00:36:04.226Z,32.10
2022-12-23T00:38:54.281Z,30.90
2022-12-23T00:41:44.317Z,30.90
2022-12-23T00:44:16.831Z,32.40
2022-12-23T00:46:49.397Z,28.80
2022-12-23T00:49:40.205Z,29.90
2022-12-23T00:52:16.769Z,27.90
2022-12-23T00:54:49.212Z,31.80
2022-12-23T00:57:21.718Z,28.50
2022-12-23T00:59:54.293Z,30.40
2022-12-23T01:02:44.092Z,28.80
2022-12-23T01:05:36.268Z,29.20
2022-12-23T01:08:11.357Z,29.30
2022-12-23T01:10:43.839Z,27.30
2022-12-23T01:13:16.346Z,28.80
2022-12-23T01:15:49.197Z,28.30
2022-12-23T01:18:23.588Z,28.30
2022-12-23T01:20:56.201Z,28.70
2022-12-23T01:23:28.803Z,30.30
2022-12-23T01:26:03.690Z,28.00
2022-12-23T01:28:37.226Z,28.50
2022-12-23T01:31:12.854Z,27.20
2022-12-23T01:33:46.103Z,29.90
2022-12-23T01:36:19.458Z,29.10
2022-12-23T01:38:52.281Z,31.00
2022-12-23T01:41:44.979Z,29.80
2022-12-23T01:44:51.664Z,31.70
2022-12-23T01:47:28.428Z,29.50
2022-12-23T01:50:07.648Z,32.20
2022-12-23T01:52:46.038Z,31.60
2022-12-23T01:57:53.757Z,27.90
2022-12-23T02:00:44.066Z,28.50
2022-12-23T02:03:33.956Z,28.60
2022-12-23T02:06:21.337Z,29.50
2022-12-23T02:09:11.030Z,25.90
2022-12-23T02:12:15.796Z,26.90
2022-12-23T02:15:37.147Z,31.10
2022-12-23T02:18:32.471Z,29.20
2022-12-23T02:21:29.203Z,31.50
2022-12-23T02:24:27.785Z,31.20
2022-12-23T02:27:20.297Z,30.90
2022-12-23T02:30:28.170Z,34.60
2022-12-23T02:33:31.559Z,30.70
2022-12-23T02:36:17.641Z,32.00
2022-12-23T02:38:57.966Z,32.10
2022-12-23T02:41:38.208Z,31.50
2022-12-23T02:44:20.214Z,31.60
2022-12-23T02:46:56.983Z,30.90
2022-12-23T02:49:34.866Z,31.10
2022-12-23T02:52:15.688Z,34.20
2022-12-23T02:54:53.113Z,32.60
2022-12-23T02:57:30.794Z,33.80
2022-12-23T03:00:05.189Z,36.80
2022-12-23T03:02:41.169Z,33.40
2022-12-23T03:05:29.324Z,31.90
2022-12-23T03:08:05.355Z,31.20
2022-12-23T03:10:46.363Z,32.10
2022-12-23T03:13:30.415Z,34.90
2022-12-23T03:16:16.155Z,32.60
2022-12-23T03:19:02.579Z,35.30
2022-12-23T03:21:42.680Z,35.80
2022-12-23T03:24:23.388Z,35.10
2022-12-23T03:27:04.692Z,37.20
2022-12-23T03:29:44.111Z,38.00
2022-12-23T03:32:18.377Z,35.30
2022-12-23T03:34:53.622Z,34.90
2022-12-23T03:37:29.182Z,35.50
2022-12-23T03:40:06.124Z,34.30
2022-12-23T03:42:41.296Z,37.80
2022-12-23T03:48:17.371Z,35.60
2022-12-23T03:50:54.126Z,38.70
2022-12-23T03:53:31.047Z,36.70
2022-12-23T03:56:07.969Z,34.40
2022-12-23T03:58:44.418Z,34.20
2022-12-23T04:01:27.273Z,32.60
2022-12-23T04:04:08.118Z,33.40
2022-12-23T04:06:46.775Z,33.40
2022-12-23T04:09:22.357Z,32.50
2022-12-23T04:11:56.372Z,32.50
2022-12-23T04:14:28.856Z,35.20
2022-12-23T04:17:01.676Z,38.60
2022-12-23T04:19:34.196Z,36.50
2022-12-23T04:22:06.743Z,39.30
2022-12-23T04:24:39.357Z,34.20
2022-12-23T04:27:14.846Z,35.90
2022-12-23T04:29:47.971Z,32.10
2022-12-23T04:32:20.449Z,33.00
2022-12-23T04:34:53.023Z,32.70
2022-12-23T04:37:28.236Z,33.10
2022-12-23T04:40:00.718Z,32.40
2022-12-23T04:42:33.371Z,29.80
2022-12-23T04:45:09.847Z,32.10
2022-12-23T04:47:42.376Z,33.40
2022-12-23T04:50:17.199Z,35.40
2022-12-23T04:52:49.705Z,35.00
2022-12-23T04:55:22.225Z,34.70
2022-12-23T04:57:54.774Z,33.00
2022-12-23T05:00:27.448Z,32.50
2022-12-23T05:03:00.226Z,31.60
2022-12-23T05:05:32.976Z,29.80
2022-12-23T05:08:07.777Z,34.90
2022-12-23T05:10:40.325Z,35.30
2022-12-23T05:13:12.909Z,30.40
2022-12-23T05:15:46.717Z,32.50
2022-12-23T05:18:19.502Z,33.00
2022-12-23T05:20:52.677Z,32.10
2022-12-23T05:23:25.197Z,32.20
2022-12-23T05:25:58.023Z,33.40
2022-12-23T05:28:30.633Z,32.30
2022-12-23T05:31:06.417Z,33.30
2022-12-23T05:33:39.145Z,30.70
2022-12-23T05:36:12.719Z,36.10
2022-12-23T05:38:45.216Z,33.90
2022-12-23T05:41:18.552Z,33.70
2022-12-23T05:43:51.227Z,30.30
2022-12-23T05:46:26.786Z,32.60
2022-12-23T05:48:59.697Z,33.50
2022-12-23T05:51:32.197Z,33.40
2022-12-23T05:54:04.727Z,32.40
2022-12-23T05:56:37.798Z,31.40
2022-12-23T05:59:10.458Z,30.10
2022-12-23T06:01:43.017Z,31.70
2022-12-23T06:04:15.634Z,30.90
2022-12-23T06:06:48.144Z,32.10
2022-12-23T06:09:20.583Z,32.10
2022-12-23T06:11:53.261Z,30.40
2022-12-23T06:14:29.064Z,31.60
2022-12-23T06:17:02.033Z,34.60
2022-12-23T06:19:34.481Z,31.40
2022-12-23T06:22:07.986Z,34.40
2022-12-23T06:24:41.081Z,31.00
2022-12-23T06:27:13.798Z,34.00
2022-12-23T06:29:46.503Z,32.50
2022-12-23T06:32:19.049Z,32.90
2022-12-23T06:34:53.421Z,31.10
2022-12-23T06:37:25.934Z,31.20
2022-12-23T06:39:58.535Z,30.70
2022-12-23T06:42:31.237Z,28.70
2022-12-23T06:45:03.725Z,28.60
2022-12-23T06:47:36.233Z,30.20
2022-12-23T06:50:10.332Z,30.20
2022-12-23T06:52:42.802Z,31.50
2022-12-23T06:55:15.496Z,33.80
2022-12-23T06:57:47.923Z,36.80
2022-12-23T07:00:22.737Z,36.60
2022-12-23T07:02:56.149Z,38.10
2022-12-23T07:05:36.457Z,38.00
2022-12-23T07:08:09.855Z,31.90
2022-12-23T07:10:42.443Z,31.40
2022-12-23T07:13:15.227Z,31.20
2022-12-23T07:15:47.769Z,37.70
2022-12-23T07:18:20.246Z,33.80
2022-12-23T07:20:53.238Z,32.60
2022-12-23T07:23:25.687Z,30.00
2022-12-23T07:25:58.556Z,31.60
2022-12-23T07:28:31.081Z,27.50
2022-12-23T07:31:06.341Z,28.90
2022-12-23T07:33:38.861Z,28.90
2022-12-23T07:36:12.095Z,29.40
2022-12-23T07:38:44.917Z,29.40
2022-12-23T07:41:17.402Z,29.10
2022-12-23T07:43:50.054Z,28.10
2022-12-23T07:46:22.639Z,26.20
2022-12-23T07:48:55.404Z,25.50
2022-12-23T07:51:28.306Z,25.80
2022-12-23T07:54:00.914Z,26.10
2022-12-23T07:56:33.409Z,27.20
2022-12-23T07:59:05.881Z,26.70
2022-12-23T08:01:38.717Z,25.20
2022-12-23T08:04:11.457Z,24.50
2022-12-23T08:06:43.933Z,27.30
2022-12-23T08:09:19.335Z,24.10
2022-12-23T08:11:51.927Z,26.60
2022-12-23T08:14:24.539Z,24.70
2022-12-23T08:16:59.212Z,26.20
2022-12-23T08:19:31.736Z,27.00
2022-12-23T08:22:04.263Z,27.10
2022-12-23T08:24:36.733Z,26.40
2022-12-23T08:27:09.205Z,25.60
2022-12-23T08:29:42.005Z,25.20
2022-12-23T08:32:14.666Z,25.50
2022-12-23T08:34:47.139Z,25.70
2022-12-23T08:37:19.820Z,24.20
2022-12-23T08:39:52.332Z,24.60
2022-12-23T08:42:26.102Z,24.90
2022-12-23T08:44:58.856Z,24.10
2022-12-23T08:47:31.375Z,25.00
2022-12-23T08:50:04.007Z,24.60
2022-12-23T08:52:36.489Z,24.00
2022-12-23T08:55:10.257Z,24.70
2022-12-23T08:57:42.712Z,23.00
2022-12-23T09:00:16.389Z,22.20
2022-12-23T09:02:49.003Z,22.10
2022-12-23T09:05:21.602Z,20.50
2022-12-23T09:07:54.332Z,24.10
2022-12-23T09:10:28.092Z,23.30
2022-12-23T09:13:00.541Z,20.90
2022-12-23T09:15:33.112Z,22.60
2022-12-23T09:18:05.617Z,20.70
2022-12-23T09:20:38.385Z,21.90
2022-12-23T09:23:10.923Z,21.60
2022-12-23T09:25:43.446Z,21.80
2022-12-23T09:28:15.924Z,22.70
2022-12-23T09:30:48.481Z,21.40
2022-12-23T09:33:21.045Z,22.00
2022-12-23T09:35:53.575Z,19.50
2022-12-23T09:38:26.044Z,21.50
2022-12-23T09:41:05.312Z,20.20
2022-12-23T09:43:49.941Z,20.30
2022-12-23T09:46:26.833Z,18.90
2022-12-23T09:49:05.463Z,20.90
2022-12-23T09:51:38.461Z,19.70
2022-12-23T09:54:17.799Z,20.00
2022-12-23T09:56:56.217Z,21.70
2022-12-23T09:59:47.708Z,20.50
2022-12-23T10:02:29.904Z,18.30
2022-12-23T10:05:15.822Z,16.60
2022-12-23T10:07:52.913Z,18.60
2022-12-23T10:10:35.983Z,19.00
2022-12-23T10:13:14.162Z,20.10
2022-12-23T10:18:26.275Z,17.40
2022-12-23T10:21:02.929Z,18.90
2022-12-23T10:23:39.279Z,21.20
2022-12-23T10:26:19.761Z,18.90
2022-12-23T10:28:56.295Z,21.70
2022-12-23T10:31:40.924Z,19.60
2022-12-23T10:34:23.420Z,19.50
2022-12-23T10:37:08.746Z,20.10
2022-12-23T10:39:46.177Z,17.20
2022-12-23T10:42:29.201Z,19.00
2022-12-23T10:45:32.697Z,18.00
2022-12-23T10:48:23.070Z,17.50
2022-12-23T10:51:02.736Z,18.30
2022-12-23T10:53:47.100Z,19.20
2022-12-23T10:56:21.959Z,19.60
2022-12-23T10:58:58.111Z,19.00
2022-12-23T11:01:31.868Z,18.40
2022-12-23T11:04:10.296Z,19.10
2022-12-23T11:06:45.421Z,19.60
2022-12-23T11:09:21.593Z,18.10
2022-12-23T11:11:59.763Z,17.40
2022-12-23T11:17:24.571Z,19.50
2022-12-23T11:20:13.581Z,16.70
2022-12-23T11:22:52.899Z,19.20
2022-12-23T11:25:38.149Z,17.90
2022-12-23T11:28:17.505Z,20.00
2022-12-23T11:30:58.365Z,20.10
2022-12-23T11:33:33.367Z,22.80
2022-12-23T11:36:10.026Z,20.60
2022-12-23T11:38:52.598Z,20.70
2022-12-23T11:41:27.986Z,21.20
2022-12-23T11:44:04.964Z,20.40
2022-12-23T11:46:38.030Z,19.10
2022-12-23T11:49:21.763Z,17.80
2022-12-23T11:52:03.643Z,18.40
2022-12-23T11:54:37.171Z,19.20
2022-12-23T11:57:17.760Z,17.90
2022-12-23T11:59:56.669Z,19.80
2022-12-23T12:02:37.654Z,23.20
2022-12-23T12:05:23.034Z,21.10
2022-12-23T12:07:59.828Z,19.30
2022-12-23T12:10:35.153Z,21.20
2022-12-23T12:13:17.468Z,20.90
2022-12-23T12:15:57.388Z,20.80
2022-12-23T12:18:30.744Z,20.60
2022-12-23T12:21:06.960Z,21.00
2022-12-23T12:23:45.454Z,20.20
2022-12-23T12:26:24.397Z,20.10
2022-12-23T12:29:02.535Z,20.30
2022-12-23T12:31:40.478Z,18.70
2022-12-23T12:34:29.534Z,19.80
2022-12-23T12:37:08.952Z,19.60
2022-12-23T12:39:47.279Z,19.30
2022-12-23T12:42:27.185Z,18.20
2022-12-23T12:45:06.798Z,19.50
2022-12-23T12:47:54.115Z,20.40
2022-12-23T12:50:31.284Z,20.30
2022-12-23T12:53:20.211Z,20.60
2022-12-23T12:55:58.410Z,22.80
2022-12-23T13:01:14.792Z,20.60
2022-12-23T13:04:07.287Z,21.30
2022-12-23T13:06:49.539Z,20.90
2022-12-23T13:09:32.486Z,21.50
2022-12-23T13:12:16.240Z,21.70
2022-12-23T13:15:00.799Z,23.30
2022-12-23T13:17:39.262Z,21.70
2022-12-23T13:20:26.675Z,21.00
2022-12-23T13:23:34.424Z,20.90
2022-12-23T13:26:06.708Z,22.50
2022-12-23T13:28:51.271Z,18.70
2022-12-23T13:31:41.184Z,21.20
2022-12-23T13:34:30.014Z,19.00
2022-12-23T13:37:13.430Z,22.70
2022-12-23T13:39:57.302Z,21.30
2022-12-23T13:42:35.742Z,20.00
2022-12-23T13:45:15.566Z,20.50
2022-12-23T13:48:04.332Z,21.20
2022-12-23T13:50:43.634Z,20.60
2022-12-23T13:56:12.351Z,19.40
2022-12-23T13:58:49.262Z,21.90
2022-12-23T14:01:44.760Z,23.30
2022-12-23T14:04:58.342Z,21.90
2022-12-23T14:07:33.431Z,22.70
2022-12-23T14:10:21.778Z,25.90
2022-12-23T14:13:00.441Z,21.50
2022-12-23T14:15:49.687Z,23.20
2022-12-23T14:18:46.521Z,21.70
2022-12-23T14:21:29.173Z,22.40
2022-12-23T14:24:26.405Z,27.30
2022-12-23T14:27:23.112Z,23.10
2022-12-23T14:30:09.030Z,25.00
2022-12-23T14:32:47.990Z,25.80
2022-12-23T14:35:25.281Z,25.60
2022-12-23T14:38:31.470Z,23.60
2022-12-23T14:41:24.225Z,23.00
2022-12-23T14:44:02.913Z,23.50
2022-12-23T14:46:58.600Z,26.50
2022-12-23T14:49:44.204Z,27.40
2022-12-23T14:52:48.107Z,28.70
2022-12-23T14:55:51.565Z,25.90
2022-12-23T14:58:33.722Z,37.00
2022-12-23T15:01:13.758Z,27.30
2022-12-23T15:03:57.556Z,32.10
2022-12-23T15:06:37.414Z,26.50
2022-12-23T15:09:20.015Z,27.40
2022-12-23T15:11:53.929Z,25.50
2022-12-23T15:14:35.346Z,24.00
2022-12-23T15:17:25.634Z,26.10
2022-12-23T15:20:09.391Z,23.30
2022-12-23T15:22:43.354Z,19.90
2022-12-23T15:25:27.703Z,19.80
2022-12-23T15:28:02.688Z,18.90
2022-12-23T15:30:47.343Z,19.30
2022-12-23T15:36:23.169Z,18.30
2022-12-23T15:38:55.946Z,20.00
2022-12-23T15:41:29.130Z,20.80
2022-12-23T15:44:02.489Z,21.60
2022-12-23T15:46:40.202Z,23.80
2022-12-23T15:49:14.613Z,21.90
2022-12-23T15:54:47.089Z,27.10
2022-12-23T15:57:23.989Z,20.60
2022-12-23T15:59:57.167Z,20.80
2022-12-23T16:05:32.014Z,17.70
2022-12-23T16:08:30.310Z,20.10
2022-12-23T16:11:13.981Z,24.70
2022-12-23T16:13:58.684Z,22.60
2022-12-23T16:16:38.793Z,21.00
2022-12-23T16:19:40.818Z,19.60
2022-12-23T16:22:29.595Z,20.40
2022-12-23T16:25:10.582Z,17.50
2022-12-23T16:27:45.328Z,17.60
2022-12-23T16:30:21.680Z,17.20
2022-12-23T16:32:56.682Z,18.00
2022-12-23T16:35:41.145Z,18.30
2022-12-23T16:38:17.389Z,17.10
2022-12-23T16:40:52.623Z,17.50
2022-12-23T16:43:26.110Z,17.60
2022-12-23T16:46:00.130Z,18.10
2022-12-23T16:48:36.631Z,19.60
2022-12-23T16:51:14.493Z,22.10
2022-12-23T16:53:47.296Z,21.60
2022-12-23T16:56:22.156Z,21.30
2022-12-23T16:58:54.859Z,21.40
2022-12-23T17:01:30.981Z,22.80
2022-12-23T17:04:03.911Z,23.60
2022-12-23T17:06:37.408Z,25.60
2022-12-23T17:09:11.765Z,26.00
2022-12-23T17:11:47.547Z,27.80
2022-12-23T17:14:22.081Z,24.20
2022-12-23T17:16:55.011Z,24.40
2022-12-23T17:19:29.346Z,29.30
2022-12-23T17:22:04.718Z,24.50
2022-12-23T17:24:37.585Z,24.60
2022-12-23T17:27:15.831Z,22.20
2022-12-23T17:29:48.370Z,22.40
2022-12-23T17:32:22.760Z,21.60
2022-12-23T17:34:56.979Z,23.60
2022-12-23T17:37:33.845Z,23.50
2022-12-23T17:40:07.537Z,21.80
2022-12-23T17:42:40.558Z,22.70
2022-12-23T17:45:25.335Z,25.00
2022-12-23T17:47:58.124Z,22.80
2022-12-23T17:50:31.563Z,22.70
2022-12-23T17:53:04.385Z,26.10
2022-12-23T17:55:37.224Z,22.90
2022-12-23T17:58:10.217Z,22.30
2022-12-23T18:00:43.148Z,24.10
2022-12-23T18:03:24.674Z,25.00
2022-12-23T18:06:02.046Z,25.30
2022-12-23T18:08:35.139Z,25.00
2022-12-23T18:11:08.682Z,24.70
2022-12-23T18:13:41.531Z,22.50
2022-12-23T18:16:15.333Z,20.80
2022-12-23T18:18:47.967Z,22.30
2022-12-23T18:21:24.903Z,23.10
2022-12-23T18:24:00.878Z,22.70
2022-12-23T18:26:33.520Z,20.50
2022-12-23T18:29:06.317Z,22.20
2022-12-23T18:31:50.026Z,22.60
2022-12-23T18:34:23.936Z,23.30
2022-12-23T18:36:56.446Z,22.70
2022-12-23T18:39:29.323Z,23.80
2022-12-23T18:42:02.449Z,22.10
2022-12-23T18:44:35.240Z,22.60
2022-12-23T18:47:08.141Z,25.00
2022-12-23T18:49:41.179Z,24.80
2022-12-23T18:52:15.077Z,23.90
2022-12-23T18:54:47.900Z,23.30
2022-12-23T18:57:23.356Z,23.30
2022-12-23T18:59:56.103Z,21.50
2022-12-23T19:02:29.380Z,20.60
2022-12-23T19:05:02.141Z,22.30
2022-12-23T19:07:34.751Z,20.50
2022-12-23T19:10:10.726Z,21.60
2022-12-23T19:12:43.411Z,24.20
2022-12-23T19:15:17.556Z,25.50
2022-12-23T19:17:51.125Z,21.50
2022-12-23T19:20:24.129Z,23.70
2022-12-23T19:22:57.010Z,23.90
2022-12-23T19:25:30.289Z,21.50
2022-12-23T19:28:03.261Z,23.40
2022-12-23T19:30:37.367Z,22.20
2022-12-23T19:33:10.325Z,23.70
2022-12-23T19:35:45.418Z,22.10
2022-12-23T19:38:18.288Z,21.80
2022-12-23T19:40:59.327Z,21.50
2022-12-23T19:43:32.419Z,22.40
2022-12-23T19:46:09.071Z,21.40
2022-12-23T19:48:41.867Z,23.70
2022-12-23T19:51:16.957Z,23.00
2022-12-23T19:53:53.080Z,23.00
2022-12-23T19:56:26.371Z,24.90
2022-12-23T19:58:58.988Z,31.30
2022-12-23T20:01:31.902Z,34.10
2022-12-23T20:04:04.706Z,30.30
2022-12-23T20:06:38.564Z,27.10
2022-12-23T20:09:13.412Z,25.50
2022-12-23T20:11:47.494Z,24.90
2022-12-23T20:14:21.952Z,24.30
2022-12-23T20:16:54.955Z,23.20
2022-12-23T20:19:28.069Z,21.60
2022-12-23T20:22:00.877Z,22.60
2022-12-23T20:24:37.200Z,22.40
2022-12-23T20:27:12.576Z,22.50
2022-12-23T20:29:46.060Z,24.00
2022-12-23T20:32:18.756Z,22.00
2022-12-23T20:34:51.498Z,23.10
2022-12-23T20:37:24.347Z,24.80
2022-12-23T20:39:57.135Z,24.80
2022-12-23T20:42:29.683Z,25.30
2022-12-23T20:45:02.335Z,23.50
2022-12-23T20:47:35.322Z,23.50
2022-12-23T20:50:11.014Z,26.20
2022-12-23T20:52:43.805Z,24.70
2022-12-23T20:55:16.685Z,24.10
2022-12-23T20:57:49.500Z,24.00
2022-12-23T21:00:22.922Z,24.30
2022-12-23T21:02:56.880Z,22.10
2022-12-23T21:05:29.951Z,30.60
2022-12-23T21:08:02.997Z,22.70
2022-12-23T21:10:36.426Z,25.00
2022-12-23T21:13:09.143Z,23.10
2022-12-23T21:15:41.916Z,22.70
2022-12-23T21:18:16.793Z,23.60
2022-12-23T21:20:49.340Z,25.60
2022-12-23T21:23:22.145Z,23.20
2022-12-23T21:26:04.854Z,22.80
2022-12-23T21:28:37.787Z,22.20
2022-12-23T21:31:11.884Z,20.90
2022-12-23T21:33:47.086Z,23.50
2022-12-23T21:36:21.799Z,21.20
2022-12-23T21:38:54.902Z,22.50
2022-12-23T21:41:30.038Z,23.70
2022-12-23T21:44:04.505Z,22.40
2022-12-23T21:46:37.174Z,22.60
2022-12-23T21:49:10.919Z,22.70
2022-12-23T21:51:43.988Z,20.00
2022-12-23T21:54:20.859Z,21.80
2022-12-23T21:56:53.497Z,21.70
2022-12-23T21:59:32.827Z,19.90
2022-12-23T22:02:08.162Z,21.80
2022-12-23T22:04:40.936Z,22.20
2022-12-23T22:07:13.586Z,21.50
2022-12-23T22:09:46.241Z,22.60
2022-12-23T22:12:18.990Z,21.80
2022-12-23T22:14:52.812Z,21.30
2022-12-23T22:17:25.761Z,20.40
2022-12-23T22:19:58.377Z,20.20
2022-12-23T22:22:30.874Z,19.60
2022-12-23T22:25:03.383Z,20.90
2022-12-23T22:27:35.871Z,19.20
2022-12-23T22:30:10.328Z,20.50
2022-12-23T22:32:43.051Z,21.20
2022-12-23T22:35:15.863Z,21.00
2022-12-23T22:37:48.339Z,20.80
2022-12-23T22:40:21.227Z,22.30
2022-12-23T22:42:54.314Z,21.00
2022-12-23T22:45:27.690Z,21.50
2022-12-23T22:48:00.442Z,20.20
2022-12-23T22:51:57.271Z,19.40
2022-12-23T22:54:30.151Z,19.80
2022-12-23T22:57:03.117Z,18.70
2022-12-23T22:59:36.048Z,17.90
2022-12-23T23:02:09.157Z,18.00
2022-12-23T23:04:42.758Z,20.20
2022-12-23T23:07:15.574Z,19.10
2022-12-23T23:09:48.816Z,21.10
2022-12-23T23:12:21.558Z,20.40
2022-12-23T23:14:54.429Z,21.00
2022-12-23T23:17:28.662Z,28.80
2022-12-23T23:20:01.507Z,27.60
2022-12-23T23:22:34.810Z,21.20
2022-12-23T23:25:08.788Z,20.00
2022-12-23T23:27:41.878Z,22.80
2022-12-23T23:30:15.610Z,19.60
2022-12-23T23:32:48.616Z,20.90
2022-12-23T23:35:22.672Z,21.50
2022-12-23T23:37:57.403Z,19.20
2022-12-23T23:40:30.509Z,20.20
2022-12-23T23:48:06.672Z,18.30
2022-12-23T23:50:39.607Z,20.00
2022-12-23T23:53:13.059Z,18.80
2022-12-23T23:55:46.124Z,18.40
2022-12-23T23:58:19.225Z,19.60
